sensor_id;sensor_type;location;lat;lon;timestamp;P1;durP1;ratioP1;P2;durP2;ratioP2
68942;SDS011;60852;52.190;4.422;2022-09-21T00:03:35;2.95;;;2.95;;
68942;SDS011;60852;52.190;4.422;2022-09-21T00:06:02;2.82;;;2.82;;
68942;SDS011;60852;52.190;4.422;2022-09-21T00:08:32;2.71;;;2.71;;
68942;SDS011;60852;52.190;4.422;2022-09-21T00:10:59;2.57;;;2.57;;
68942;SDS011;60852;52.190;4.422;2022-09-21T00:13:25;2.90;;;2.90;;
68942;SDS011;60852;52.190;4.422;2022-09-21T00:15:53;3.05;;;3.05;;
68942;SDS011;60852;52.190;4.422;2022-09-21T00:18:20;3.44;;;3.43;;
68942;SDS011;60852;52.190;4.422;2022-09-21T00:20:46;3.16;;;3.16;;
68942;SDS011;60852;52.190;4.422;2022-09-21T00:23:12;3.60;;;3.58;;
68942;SDS011;60852;52.190;4.422;2022-09-21T00:25:37;3.73;;;3.73;;
68942;SDS011;60852;52.190;4.422;2022-09-21T00:28:03;3.25;;;3.25;;
68942;SDS011;60852;52.190;4.422;2022-09-21T00:30:28;3.17;;;3.17;;
68942;SDS011;60852;52.190;4.422;2022-09-21T00:32:54;3.42;;;3.42;;
68942;SDS011;60852;52.190;4.422;2022-09-21T00:35:19;3.21;;;3.21;;
68942;SDS011;60852;52.190;4.422;2022-09-21T00:37:45;2.99;;;2.99;;
68942;SDS011;60852;52.190;4.422;2022-09-21T00:40:10;3.17;;;3.17;;
68942;SDS011;60852;52.190;4.422;2022-09-21T00:42:36;2.85;;;2.85;;
68942;SDS011;60852;52.190;4.422;2022-09-21T00:45:03;2.80;;;2.80;;
68942;SDS011;60852;52.190;4.422;2022-09-21T00:47:31;2.94;;;2.94;;
68942;SDS011;60852;52.190;4.422;2022-09-21T00:49:59;2.93;;;2.93;;
68942;SDS011;60852;52.190;4.422;2022-09-21T00:52:32;2.83;;;2.83;;
68942;SDS011;60852;52.190;4.422;2022-09-21T00:55:21;2.92;;;2.92;;
68942;SDS011;60852;52.190;4.422;2022-09-21T00:57:56;2.95;;;2.95;;
68942;SDS011;60852;52.190;4.422;2022-09-21T01:00:26;2.85;;;2.85;;
68942;SDS011;60852;52.190;4.422;2022-09-21T01:02:52;3.01;;;3.01;;
68942;SDS011;60852;52.190;4.422;2022-09-21T01:05:26;3.21;;;3.21;;
68942;SDS011;60852;52.190;4.422;2022-09-21T01:07:52;2.97;;;2.97;;
68942;SDS011;60852;52.190;4.422;2022-09-21T01:10:24;2.94;;;2.94;;
68942;SDS011;60852;52.190;4.422;2022-09-21T01:13:12;2.93;;;2.93;;
68942;SDS011;60852;52.190;4.422;2022-09-21T01:18:44;2.80;;;2.80;;
68942;SDS011;60852;52.190;4.422;2022-09-21T01:21:25;2.56;;;2.56;;
68942;SDS011;60852;52.190;4.422;2022-09-21T01:29:43;2.70;;;2.70;;
68942;SDS011;60852;52.190;4.422;2022-09-21T01:32:25;2.42;;;2.42;;
68942;SDS011;60852;52.190;4.422;2022-09-21T01:35:09;2.57;;;2.57;;
68942;SDS011;60852;52.190;4.422;2022-09-21T01:37:43;2.61;;;2.61;;
68942;SDS011;60852;52.190;4.422;2022-09-21T01:40:27;2.48;;;2.48;;
68942;SDS011;60852;52.190;4.422;2022-09-21T01:42:57;2.54;;;2.52;;
68942;SDS011;60852;52.190;4.422;2022-09-21T01:45:29;2.65;;;2.64;;
68942;SDS011;60852;52.190;4.422;2022-09-21T01:47:59;2.65;;;2.65;;
68942;SDS011;60852;52.190;4.422;2022-09-21T01:50:30;2.72;;;2.72;;
68942;SDS011;60852;52.190;4.422;2022-09-21T01:53:09;2.62;;;2.62;;
68942;SDS011;60852;52.190;4.422;2022-09-21T01:56:06;2.82;;;2.82;;
68942;SDS011;60852;52.190;4.422;2022-09-21T02:01:52;2.90;;;2.90;;
68942;SDS011;60852;52.190;4.422;2022-09-21T02:04:27;2.99;;;2.99;;
68942;SDS011;60852;52.190;4.422;2022-09-21T02:06:53;2.94;;;2.94;;
68942;SDS011;60852;52.190;4.422;2022-09-21T02:09:19;2.73;;;2.73;;
68942;SDS011;60852;52.190;4.422;2022-09-21T02:11:45;2.54;;;2.54;;
68942;SDS011;60852;52.190;4.422;2022-09-21T02:14:12;2.73;;;2.73;;
68942;SDS011;60852;52.190;4.422;2022-09-21T02:16:52;3.18;;;3.18;;
68942;SDS011;60852;52.190;4.422;2022-09-21T02:22:38;2.99;;;2.99;;
68942;SDS011;60852;52.190;4.422;2022-09-21T02:25:27;3.07;;;3.05;;
68942;SDS011;60852;52.190;4.422;2022-09-21T02:29:11;2.84;;;2.84;;
68942;SDS011;60852;52.190;4.422;2022-09-21T02:31:15;2.88;;;2.88;;
68942;SDS011;60852;52.190;4.422;2022-09-21T02:34:05;2.91;;;2.91;;
68942;SDS011;60852;52.190;4.422;2022-09-21T02:39:46;2.89;;;2.89;;
68942;SDS011;60852;52.190;4.422;2022-09-21T02:42:23;2.76;;;2.76;;
68942;SDS011;60852;52.190;4.422;2022-09-21T02:44:58;2.84;;;2.84;;
68942;SDS011;60852;52.190;4.422;2022-09-21T02:47:35;3.01;;;3.01;;
68942;SDS011;60852;52.190;4.422;2022-09-21T02:50:39;2.71;;;2.71;;
68942;SDS011;60852;52.190;4.422;2022-09-21T02:53:14;2.86;;;2.86;;
68942;SDS011;60852;52.190;4.422;2022-09-21T02:55:45;2.79;;;2.79;;
68942;SDS011;60852;52.190;4.422;2022-09-21T02:58:14;2.90;;;2.90;;
68942;SDS011;60852;52.190;4.422;2022-09-21T03:00:43;3.11;;;3.11;;
68942;SDS011;60852;52.190;4.422;2022-09-21T03:03:16;3.00;;;3.00;;
68942;SDS011;60852;52.190;4.422;2022-09-21T03:05:46;3.15;;;3.15;;
68942;SDS011;60852;52.190;4.422;2022-09-21T03:08:14;3.00;;;3.00;;
68942;SDS011;60852;52.190;4.422;2022-09-21T03:10:40;3.08;;;3.08;;
68942;SDS011;60852;52.190;4.422;2022-09-21T03:13:06;3.11;;;3.11;;
68942;SDS011;60852;52.190;4.422;2022-09-21T03:15:39;3.19;;;3.19;;
68942;SDS011;60852;52.190;4.422;2022-09-21T03:18:05;2.89;;;2.89;;
68942;SDS011;60852;52.190;4.422;2022-09-21T03:20:36;3.00;;;3.00;;
68942;SDS011;60852;52.190;4.422;2022-09-21T03:23:02;3.41;;;3.41;;
68942;SDS011;60852;52.190;4.422;2022-09-21T03:25:28;2.97;;;2.97;;
68942;SDS011;60852;52.190;4.422;2022-09-21T03:27:55;3.12;;;3.12;;
68942;SDS011;60852;52.190;4.422;2022-09-21T03:30:22;3.27;;;3.27;;
68942;SDS011;60852;52.190;4.422;2022-09-21T03:32:50;3.19;;;3.19;;
68942;SDS011;60852;52.190;4.422;2022-09-21T03:35:17;3.35;;;3.35;;
68942;SDS011;60852;52.190;4.422;2022-09-21T03:37:45;3.38;;;3.38;;
68942;SDS011;60852;52.190;4.422;2022-09-21T03:40:12;3.06;;;3.06;;
68942;SDS011;60852;52.190;4.422;2022-09-21T03:42:40;3.12;;;3.12;;
68942;SDS011;60852;52.190;4.422;2022-09-21T03:45:06;3.32;;;3.32;;
68942;SDS011;60852;52.190;4.422;2022-09-21T03:47:34;3.35;;;3.35;;
68942;SDS011;60852;52.190;4.422;2022-09-21T03:49:59;3.16;;;3.16;;
68942;SDS011;60852;52.190;4.422;2022-09-21T03:52:25;3.24;;;3.24;;
68942;SDS011;60852;52.190;4.422;2022-09-21T03:54:50;3.28;;;3.27;;
68942;SDS011;60852;52.190;4.422;2022-09-21T03:57:16;3.37;;;3.35;;
68942;SDS011;60852;52.190;4.422;2022-09-21T03:59:41;3.59;;;3.57;;
68942;SDS011;60852;52.190;4.422;2022-09-21T04:02:07;3.59;;;3.56;;
68942;SDS011;60852;52.190;4.422;2022-09-21T04:04:33;3.61;;;3.60;;
68942;SDS011;60852;52.190;4.422;2022-09-21T04:06:58;3.44;;;3.42;;
68942;SDS011;60852;52.190;4.422;2022-09-21T04:09:24;3.59;;;3.59;;
68942;SDS011;60852;52.190;4.422;2022-09-21T04:11:49;3.62;;;3.62;;
68942;SDS011;60852;52.190;4.422;2022-09-21T04:14:18;3.62;;;3.62;;
68942;SDS011;60852;52.190;4.422;2022-09-21T04:16:44;3.57;;;3.57;;
68942;SDS011;60852;52.190;4.422;2022-09-21T04:19:10;3.74;;;3.74;;
68942;SDS011;60852;52.190;4.422;2022-09-21T04:21:36;3.72;;;3.72;;
68942;SDS011;60852;52.190;4.422;2022-09-21T04:24:02;3.92;;;3.92;;
68942;SDS011;60852;52.190;4.422;2022-09-21T04:26:29;3.92;;;3.92;;
68942;SDS011;60852;52.190;4.422;2022-09-21T04:28:57;3.86;;;3.86;;
68942;SDS011;60852;52.190;4.422;2022-09-21T04:31:27;3.52;;;3.52;;
68942;SDS011;60852;52.190;4.422;2022-09-21T04:33:54;3.81;;;3.81;;
68942;SDS011;60852;52.190;4.422;2022-09-21T04:36:21;4.08;;;4.08;;
68942;SDS011;60852;52.190;4.422;2022-09-21T04:38:49;3.91;;;3.91;;
68942;SDS011;60852;52.190;4.422;2022-09-21T04:41:16;3.98;;;3.98;;
68942;SDS011;60852;52.190;4.422;2022-09-21T04:43:43;3.85;;;3.85;;
68942;SDS011;60852;52.190;4.422;2022-09-21T04:46:11;3.57;;;3.57;;
68942;SDS011;60852;52.190;4.422;2022-09-21T04:48:41;3.74;;;3.74;;
68942;SDS011;60852;52.190;4.422;2022-09-21T04:51:07;4.05;;;4.05;;
68942;SDS011;60852;52.190;4.422;2022-09-21T04:53:35;5.55;;;5.53;;
68942;SDS011;60852;52.190;4.422;2022-09-21T04:56:02;5.16;;;5.14;;
68942;SDS011;60852;52.190;4.422;2022-09-21T04:58:30;4.74;;;4.74;;
68942;SDS011;60852;52.190;4.422;2022-09-21T05:00:56;4.39;;;4.39;;
68942;SDS011;60852;52.190;4.422;2022-09-21T05:03:22;4.50;;;4.50;;
68942;SDS011;60852;52.190;4.422;2022-09-21T05:05:49;4.98;;;4.98;;
68942;SDS011;60852;52.190;4.422;2022-09-21T05:08:20;4.94;;;4.94;;
68942;SDS011;60852;52.190;4.422;2022-09-21T05:11:06;4.92;;;4.92;;
68942;SDS011;60852;52.190;4.422;2022-09-21T05:13:34;4.67;;;4.67;;
68942;SDS011;60852;52.190;4.422;2022-09-21T05:16:00;4.42;;;4.42;;
68942;SDS011;60852;52.190;4.422;2022-09-21T05:18:25;4.65;;;4.65;;
68942;SDS011;60852;52.190;4.422;2022-09-21T05:20:59;4.05;;;4.05;;
68942;SDS011;60852;52.190;4.422;2022-09-21T05:23:26;4.14;;;4.13;;
68942;SDS011;60852;52.190;4.422;2022-09-21T05:25:53;4.17;;;4.17;;
68942;SDS011;60852;52.190;4.422;2022-09-21T05:28:19;4.13;;;4.13;;
68942;SDS011;60852;52.190;4.422;2022-09-21T05:30:48;3.93;;;3.93;;
68942;SDS011;60852;52.190;4.422;2022-09-21T05:33:39;4.07;;;4.07;;
68942;SDS011;60852;52.190;4.422;2022-09-21T05:38:54;4.30;;;4.30;;
68942;SDS011;60852;52.190;4.422;2022-09-21T05:41:21;4.40;;;4.40;;
68942;SDS011;60852;52.190;4.422;2022-09-21T05:43:47;4.31;;;4.31;;
68942;SDS011;60852;52.190;4.422;2022-09-21T05:49:12;4.63;;;4.63;;
68942;SDS011;60852;52.190;4.422;2022-09-21T05:56:55;4.51;;;4.51;;
68942;SDS011;60852;52.190;4.422;2022-09-21T05:59:59;4.41;;;4.41;;
68942;SDS011;60852;52.190;4.422;2022-09-21T06:05:40;4.38;;;4.38;;
68942;SDS011;60852;52.190;4.422;2022-09-21T06:08:08;5.05;;;5.05;;
68942;SDS011;60852;52.190;4.422;2022-09-21T06:10:33;5.37;;;5.37;;
68942;SDS011;60852;52.190;4.422;2022-09-21T06:12:59;5.30;;;5.30;;
68942;SDS011;60852;52.190;4.422;2022-09-21T06:15:25;5.16;;;5.16;;
68942;SDS011;60852;52.190;4.422;2022-09-21T06:17:50;5.05;;;5.05;;
68942;SDS011;60852;52.190;4.422;2022-09-21T06:20:16;4.89;;;4.89;;
68942;SDS011;60852;52.190;4.422;2022-09-21T06:22:42;4.96;;;4.96;;
68942;SDS011;60852;52.190;4.422;2022-09-21T06:25:08;4.92;;;4.92;;
68942;SDS011;60852;52.190;4.422;2022-09-21T06:27:33;5.51;;;5.51;;
68942;SDS011;60852;52.190;4.422;2022-09-21T06:29:59;5.47;;;5.46;;
68942;SDS011;60852;52.190;4.422;2022-09-21T06:32:24;5.41;;;5.41;;
68942;SDS011;60852;52.190;4.422;2022-09-21T06:34:50;5.68;;;5.68;;
68942;SDS011;60852;52.190;4.422;2022-09-21T06:37:15;5.70;;;5.70;;
68942;SDS011;60852;52.190;4.422;2022-09-21T06:39:41;5.40;;;5.40;;
68942;SDS011;60852;52.190;4.422;2022-09-21T06:42:06;5.25;;;5.25;;
68942;SDS011;60852;52.190;4.422;2022-09-21T06:44:32;5.29;;;5.29;;
68942;SDS011;60852;52.190;4.422;2022-09-21T06:46:57;5.13;;;5.13;;
68942;SDS011;60852;52.190;4.422;2022-09-21T06:49:23;5.62;;;5.61;;
68942;SDS011;60852;52.190;4.422;2022-09-21T06:51:48;5.29;;;5.29;;
68942;SDS011;60852;52.190;4.422;2022-09-21T06:54:13;5.37;;;5.37;;
68942;SDS011;60852;52.190;4.422;2022-09-21T06:56:39;5.68;;;5.68;;
68942;SDS011;60852;52.190;4.422;2022-09-21T06:59:07;5.62;;;5.61;;
68942;SDS011;60852;52.190;4.422;2022-09-21T07:01:33;5.65;;;5.65;;
68942;SDS011;60852;52.190;4.422;2022-09-21T07:03:58;5.21;;;5.20;;
68942;SDS011;60852;52.190;4.422;2022-09-21T07:06:24;5.08;;;5.08;;
68942;SDS011;60852;52.190;4.422;2022-09-21T07:08:52;4.97;;;4.97;;
68942;SDS011;60852;52.190;4.422;2022-09-21T07:11:18;4.99;;;4.99;;
68942;SDS011;60852;52.190;4.422;2022-09-21T07:13:43;4.88;;;4.86;;
68942;SDS011;60852;52.190;4.422;2022-09-21T07:16:09;4.69;;;4.68;;
68942;SDS011;60852;52.190;4.422;2022-09-21T07:18:36;4.14;;;4.14;;
68942;SDS011;60852;52.190;4.422;2022-09-21T07:21:05;4.05;;;4.05;;
68942;SDS011;60852;52.190;4.422;2022-09-21T07:23:33;4.13;;;4.11;;
68942;SDS011;60852;52.190;4.422;2022-09-21T07:26:03;4.09;;;4.02;;
68942;SDS011;60852;52.190;4.422;2022-09-21T07:28:31;3.96;;;3.91;;
68942;SDS011;60852;52.190;4.422;2022-09-21T07:30:57;4.23;;;4.19;;
68942;SDS011;60852;52.190;4.422;2022-09-21T07:33:23;4.16;;;4.15;;
68942;SDS011;60852;52.190;4.422;2022-09-21T07:35:51;4.04;;;4.02;;
68942;SDS011;60852;52.190;4.422;2022-09-21T07:38:17;3.72;;;3.71;;
68942;SDS011;60852;52.190;4.422;2022-09-21T07:40:43;3.69;;;3.69;;
68942;SDS011;60852;52.190;4.422;2022-09-21T07:43:09;3.48;;;3.48;;
68942;SDS011;60852;52.190;4.422;2022-09-21T07:45:35;3.92;;;3.91;;
68942;SDS011;60852;52.190;4.422;2022-09-21T07:48:01;3.78;;;3.71;;
68942;SDS011;60852;52.190;4.422;2022-09-21T07:50:30;3.59;;;3.52;;
68942;SDS011;60852;52.190;4.422;2022-09-21T07:52:57;3.25;;;3.16;;
68942;SDS011;60852;52.190;4.422;2022-09-21T07:55:23;3.33;;;3.30;;
68942;SDS011;60852;52.190;4.422;2022-09-21T07:57:49;3.36;;;3.32;;
68942;SDS011;60852;52.190;4.422;2022-09-21T08:00:33;3.46;;;3.44;;
68942;SDS011;60852;52.190;4.422;2022-09-21T08:02:59;3.54;;;3.46;;
68942;SDS011;60852;52.190;4.422;2022-09-21T08:05:25;3.19;;;3.11;;
68942;SDS011;60852;52.190;4.422;2022-09-21T08:07:53;3.29;;;3.25;;
68942;SDS011;60852;52.190;4.422;2022-09-21T08:10:19;3.87;;;3.77;;
68942;SDS011;60852;52.190;4.422;2022-09-21T08:12:45;3.62;;;3.46;;
68942;SDS011;60852;52.190;4.422;2022-09-21T08:15:10;3.20;;;3.10;;
68942;SDS011;60852;52.190;4.422;2022-09-21T08:17:38;3.25;;;3.11;;
68942;SDS011;60852;52.190;4.422;2022-09-21T08:20:04;2.89;;;2.77;;
68942;SDS011;60852;52.190;4.422;2022-09-21T08:22:30;2.98;;;2.83;;
68942;SDS011;60852;52.190;4.422;2022-09-21T08:24:55;2.83;;;2.70;;
68942;SDS011;60852;52.190;4.422;2022-09-21T08:27:21;3.25;;;3.08;;
68942;SDS011;60852;52.190;4.422;2022-09-21T08:29:49;2.55;;;2.44;;
68942;SDS011;60852;52.190;4.422;2022-09-21T08:32:14;1.65;;;1.52;;
68942;SDS011;60852;52.190;4.422;2022-09-21T08:34:39;1.86;;;1.67;;
68942;SDS011;60852;52.190;4.422;2022-09-21T08:37:05;1.68;;;1.48;;
68942;SDS011;60852;52.190;4.422;2022-09-21T08:39:30;1.78;;;1.56;;
68942;SDS011;60852;52.190;4.422;2022-09-21T08:44:28;1.88;;;1.56;;
68942;SDS011;60852;52.190;4.422;2022-09-21T08:47:21;1.89;;;1.51;;
68942;SDS011;60852;52.190;4.422;2022-09-21T08:53:05;2.26;;;1.69;;
68942;SDS011;60852;52.190;4.422;2022-09-21T08:55:44;2.24;;;1.63;;
68942;SDS011;60852;52.190;4.422;2022-09-21T08:58:23;2.31;;;1.70;;
68942;SDS011;60852;52.190;4.422;2022-09-21T09:00:54;1.93;;;1.41;;
68942;SDS011;60852;52.190;4.422;2022-09-21T09:12:14;2.65;;;1.88;;
68942;SDS011;60852;52.190;4.422;2022-09-21T09:14:57;2.24;;;1.59;;
68942;SDS011;60852;52.190;4.422;2022-09-21T09:23:08;2.95;;;2.02;;
68942;SDS011;60852;52.190;4.422;2022-09-21T09:25:52;3.15;;;2.17;;
68942;SDS011;60852;52.190;4.422;2022-09-21T09:28:28;2.77;;;1.96;;
68942;SDS011;60852;52.190;4.422;2022-09-21T09:31:02;2.49;;;1.77;;
68942;SDS011;60852;52.190;4.422;2022-09-21T09:33:42;2.29;;;1.62;;
68942;SDS011;60852;52.190;4.422;2022-09-21T09:36:16;2.40;;;1.70;;
68942;SDS011;60852;52.190;4.422;2022-09-21T09:38:49;2.20;;;1.56;;
68942;SDS011;60852;52.190;4.422;2022-09-21T09:44:20;2.14;;;1.58;;
68942;SDS011;60852;52.190;4.422;2022-09-21T09:52:48;2.21;;;1.59;;
68942;SDS011;60852;52.190;4.422;2022-09-21T09:55:25;2.12;;;1.51;;
68942;SDS011;60852;52.190;4.422;2022-09-21T09:57:59;1.87;;;1.33;;
68942;SDS011;60852;52.190;4.422;2022-09-21T10:00:26;2.58;;;1.83;;
68942;SDS011;60852;52.190;4.422;2022-09-21T10:02:52;2.26;;;1.63;;
68942;SDS011;60852;52.190;4.422;2022-09-21T10:07:54;2.34;;;1.69;;
68942;SDS011;60852;52.190;4.422;2022-09-21T10:13:04;2.20;;;1.62;;
68942;SDS011;60852;52.190;4.422;2022-09-21T10:15:33;2.57;;;1.93;;
68942;SDS011;60852;52.190;4.422;2022-09-21T10:18:14;2.18;;;1.63;;
68942;SDS011;60852;52.190;4.422;2022-09-21T10:20:54;2.40;;;1.77;;
68942;SDS011;60852;52.190;4.422;2022-09-21T10:23:21;2.19;;;1.65;;
68942;SDS011;60852;52.190;4.422;2022-09-21T10:25:58;2.40;;;1.85;;
68942;SDS011;60852;52.190;4.422;2022-09-21T10:28:37;2.37;;;1.84;;
68942;SDS011;60852;52.190;4.422;2022-09-21T10:31:27;1.71;;;1.33;;
68942;SDS011;60852;52.190;4.422;2022-09-21T10:39:11;1.92;;;1.49;;
68942;SDS011;60852;52.190;4.422;2022-09-21T10:44:28;1.63;;;1.26;;
68942;SDS011;60852;52.190;4.422;2022-09-21T10:47:12;1.67;;;1.28;;
68942;SDS011;60852;52.190;4.422;2022-09-21T10:49:51;1.81;;;1.38;;
68942;SDS011;60852;52.190;4.422;2022-09-21T10:52:20;2.11;;;1.59;;
68942;SDS011;60852;52.190;4.422;2022-09-21T10:54:49;1.99;;;1.51;;
68942;SDS011;60852;52.190;4.422;2022-09-21T10:57:20;1.62;;;1.22;;
68942;SDS011;60852;52.190;4.422;2022-09-21T10:59:48;1.79;;;1.33;;
68942;SDS011;60852;52.190;4.422;2022-09-21T11:02:23;1.80;;;1.34;;
68942;SDS011;60852;52.190;4.422;2022-09-21T11:04:58;1.89;;;1.42;;
68942;SDS011;60852;52.190;4.422;2022-09-21T11:18:45;1.67;;;1.29;;
68942;SDS011;60852;52.190;4.422;2022-09-21T11:27:22;1.99;;;1.60;;
68942;SDS011;60852;52.190;4.422;2022-09-21T11:35:23;1.67;;;1.33;;
68942;SDS011;60852;52.190;4.422;2022-09-21T11:40:56;1.82;;;1.38;;
68942;SDS011;60852;52.190;4.422;2022-09-21T11:46:12;2.02;;;1.55;;
68942;SDS011;60852;52.190;4.422;2022-09-21T11:57:23;1.64;;;1.24;;
68942;SDS011;60852;52.190;4.422;2022-09-21T12:16:56;1.75;;;1.42;;
68942;SDS011;60852;52.190;4.422;2022-09-21T12:19:46;1.57;;;1.24;;
68942;SDS011;60852;52.190;4.422;2022-09-21T12:22:21;1.64;;;1.30;;
68942;SDS011;60852;52.190;4.422;2022-09-21T12:24:53;1.72;;;1.38;;
68942;SDS011;60852;52.190;4.422;2022-09-21T12:27:38;1.66;;;1.34;;
68942;SDS011;60852;52.190;4.422;2022-09-21T12:30:22;1.55;;;1.25;;
68942;SDS011;60852;52.190;4.422;2022-09-21T12:32:59;2.11;;;1.70;;
68942;SDS011;60852;52.190;4.422;2022-09-21T12:40:48;1.70;;;1.36;;
68942;SDS011;60852;52.190;4.422;2022-09-21T12:46:06;1.91;;;1.49;;
68942;SDS011;60852;52.190;4.422;2022-09-21T12:48:44;1.84;;;1.44;;
68942;SDS011;60852;52.190;4.422;2022-09-21T12:53:51;1.93;;;1.52;;
68942;SDS011;60852;52.190;4.422;2022-09-21T12:56:27;1.65;;;1.31;;
68942;SDS011;60852;52.190;4.422;2022-09-21T12:59:47;1.72;;;1.38;;
68942;SDS011;60852;52.190;4.422;2022-09-21T13:02:03;1.84;;;1.47;;
68942;SDS011;60852;52.190;4.422;2022-09-21T13:07:27;1.70;;;1.36;;
68942;SDS011;60852;52.190;4.422;2022-09-21T13:13:22;1.85;;;1.48;;
68942;SDS011;60852;52.190;4.422;2022-09-21T13:15:53;2.25;;;1.75;;
68942;SDS011;60852;52.190;4.422;2022-09-21T13:21:12;1.77;;;1.43;;
68942;SDS011;60852;52.190;4.422;2022-09-21T13:23:41;2.34;;;1.86;;
68942;SDS011;60852;52.190;4.422;2022-09-21T13:26:09;2.19;;;1.78;;
68942;SDS011;60852;52.190;4.422;2022-09-21T13:34:04;2.10;;;1.84;;
68942;SDS011;60852;52.190;4.422;2022-09-21T13:36:34;1.52;;;1.31;;
68942;SDS011;60852;52.190;4.422;2022-09-21T13:39:16;1.57;;;1.33;;
68942;SDS011;60852;52.190;4.422;2022-09-21T13:41:43;1.82;;;1.53;;
68942;SDS011;60852;52.190;4.422;2022-09-21T13:44:17;1.97;;;1.67;;
68942;SDS011;60852;52.190;4.422;2022-09-21T13:47:04;1.60;;;1.35;;
68942;SDS011;60852;52.190;4.422;2022-09-21T13:49:38;1.49;;;1.25;;
68942;SDS011;60852;52.190;4.422;2022-09-21T13:54:44;1.80;;;1.49;;
68942;SDS011;60852;52.190;4.422;2022-09-21T13:59:59;2.38;;;1.95;;
68942;SDS011;60852;52.190;4.422;2022-09-21T14:02:32;2.24;;;1.86;;
68942;SDS011;60852;52.190;4.422;2022-09-21T14:05:37;2.91;;;2.35;;
68942;SDS011;60852;52.190;4.422;2022-09-21T14:08:00;2.16;;;1.78;;
68942;SDS011;60852;52.190;4.422;2022-09-21T14:10:29;2.29;;;1.87;;
68942;SDS011;60852;52.190;4.422;2022-09-21T14:12:59;1.98;;;1.62;;
68942;SDS011;60852;52.190;4.422;2022-09-21T14:15:33;2.02;;;1.63;;
68942;SDS011;60852;52.190;4.422;2022-09-21T14:20:39;1.82;;;1.51;;
68942;SDS011;60852;52.190;4.422;2022-09-21T14:23:32;1.68;;;1.40;;
68942;SDS011;60852;52.190;4.422;2022-09-21T14:25:59;2.01;;;1.68;;
68942;SDS011;60852;52.190;4.422;2022-09-21T14:28:33;2.36;;;1.94;;
68942;SDS011;60852;52.190;4.422;2022-09-21T14:31:12;1.80;;;1.50;;
68942;SDS011;60852;52.190;4.422;2022-09-21T14:33:47;1.68;;;1.40;;
68942;SDS011;60852;52.190;4.422;2022-09-21T14:36:23;2.01;;;1.67;;
68942;SDS011;60852;52.190;4.422;2022-09-21T14:39:00;2.22;;;1.87;;
68942;SDS011;60852;52.190;4.422;2022-09-21T14:41:35;1.93;;;1.63;;
68942;SDS011;60852;52.190;4.422;2022-09-21T14:44:05;2.88;;;2.48;;
68942;SDS011;60852;52.190;4.422;2022-09-21T14:46:47;2.18;;;1.86;;
68942;SDS011;60852;52.190;4.422;2022-09-21T14:49:44;1.86;;;1.59;;
68942;SDS011;60852;52.190;4.422;2022-09-21T14:56:01;1.50;;;1.29;;
68942;SDS011;60852;52.190;4.422;2022-09-21T15:01:19;1.74;;;1.48;;
68942;SDS011;60852;52.190;4.422;2022-09-21T15:18:50;1.86;;;1.53;;
68942;SDS011;60852;52.190;4.422;2022-09-21T15:21:51;1.56;;;1.33;;
68942;SDS011;60852;52.190;4.422;2022-09-21T15:24:34;2.17;;;1.92;;
68942;SDS011;60852;52.190;4.422;2022-09-21T15:27:15;1.64;;;1.44;;
68942;SDS011;60852;52.190;4.422;2022-09-21T15:29:43;1.80;;;1.53;;
68942;SDS011;60852;52.190;4.422;2022-09-21T15:35:01;1.46;;;1.27;;
68942;SDS011;60852;52.190;4.422;2022-09-21T15:37:40;1.86;;;1.57;;
68942;SDS011;60852;52.190;4.422;2022-09-21T15:40:13;1.75;;;1.48;;
68942;SDS011;60852;52.190;4.422;2022-09-21T15:42:56;1.92;;;1.57;;
68942;SDS011;60852;52.190;4.422;2022-09-21T15:46:02;2.00;;;1.64;;
68942;SDS011;60852;52.190;4.422;2022-09-21T15:48:31;1.65;;;1.36;;
68942;SDS011;60852;52.190;4.422;2022-09-21T15:53:49;1.68;;;1.39;;
68942;SDS011;60852;52.190;4.422;2022-09-21T15:56:20;1.91;;;1.57;;
68942;SDS011;60852;52.190;4.422;2022-09-21T15:58:49;1.83;;;1.55;;
68942;SDS011;60852;52.190;4.422;2022-09-21T16:01:23;2.96;;;2.57;;
68942;SDS011;60852;52.190;4.422;2022-09-21T16:04:00;2.13;;;1.90;;
68942;SDS011;60852;52.190;4.422;2022-09-21T16:06:37;4.84;;;4.43;;
68942;SDS011;60852;52.190;4.422;2022-09-21T16:11:51;5.22;;;5.18;;
68942;SDS011;60852;52.190;4.422;2022-09-21T16:14:18;2.17;;;2.17;;
68942;SDS011;60852;52.190;4.422;2022-09-21T16:19:56;2.19;;;2.11;;
68942;SDS011;60852;52.190;4.422;2022-09-21T16:22:29;1.81;;;1.71;;
68942;SDS011;60852;52.190;4.422;2022-09-21T16:25:02;2.55;;;2.34;;
68942;SDS011;60852;52.190;4.422;2022-09-21T16:27:50;1.88;;;1.71;;
68942;SDS011;60852;52.190;4.422;2022-09-21T16:38:41;1.92;;;1.77;;
68942;SDS011;60852;52.190;4.422;2022-09-21T16:41:07;2.16;;;1.97;;
68942;SDS011;60852;52.190;4.422;2022-09-21T16:43:34;2.21;;;2.02;;
68942;SDS011;60852;52.190;4.422;2022-09-21T16:46:07;2.13;;;1.96;;
68942;SDS011;60852;52.190;4.422;2022-09-21T16:48:33;4.22;;;3.98;;
68942;SDS011;60852;52.190;4.422;2022-09-21T16:50:59;4.95;;;4.78;;
68942;SDS011;60852;52.190;4.422;2022-09-21T16:53:25;12.25;;;12.04;;
68942;SDS011;60852;52.190;4.422;2022-09-21T16:55:52;10.85;;;10.50;;
68942;SDS011;60852;52.190;4.422;2022-09-21T16:58:18;3.65;;;3.56;;
68942;SDS011;60852;52.190;4.422;2022-09-21T17:00:45;1.78;;;1.74;;
68942;SDS011;60852;52.190;4.422;2022-09-21T17:03:15;1.79;;;1.72;;
68942;SDS011;60852;52.190;4.422;2022-09-21T17:05:41;2.03;;;1.91;;
68942;SDS011;60852;52.190;4.422;2022-09-21T17:08:07;2.08;;;1.91;;
68942;SDS011;60852;52.190;4.422;2022-09-21T17:10:39;1.77;;;1.63;;
68942;SDS011;60852;52.190;4.422;2022-09-21T17:13:09;1.96;;;1.77;;
68942;SDS011;60852;52.190;4.422;2022-09-21T17:15:37;2.25;;;1.96;;
68942;SDS011;60852;52.190;4.422;2022-09-21T17:18:09;1.97;;;1.70;;
68942;SDS011;60852;52.190;4.422;2022-09-21T17:20:38;2.41;;;2.15;;
68942;SDS011;60852;52.190;4.422;2022-09-21T17:23:05;2.30;;;2.03;;
68942;SDS011;60852;52.190;4.422;2022-09-21T17:25:31;3.39;;;2.99;;
68942;SDS011;60852;52.190;4.422;2022-09-21T17:27:58;1.89;;;1.73;;
68942;SDS011;60852;52.190;4.422;2022-09-21T17:30:25;1.81;;;1.66;;
68942;SDS011;60852;52.190;4.422;2022-09-21T17:32:52;2.02;;;1.85;;
68942;SDS011;60852;52.190;4.422;2022-09-21T17:35:21;2.12;;;1.95;;
68942;SDS011;60852;52.190;4.422;2022-09-21T17:37:57;2.34;;;2.14;;
68942;SDS011;60852;52.190;4.422;2022-09-21T17:40:24;2.98;;;2.53;;
68942;SDS011;60852;52.190;4.422;2022-09-21T17:42:51;3.02;;;2.49;;
68942;SDS011;60852;52.190;4.422;2022-09-21T17:45:34;2.94;;;2.40;;
68942;SDS011;60852;52.190;4.422;2022-09-21T17:48:18;3.27;;;2.70;;
68942;SDS011;60852;52.190;4.422;2022-09-21T17:50:46;3.18;;;2.77;;
68942;SDS011;60852;52.190;4.422;2022-09-21T17:53:12;4.03;;;3.69;;
68942;SDS011;60852;52.190;4.422;2022-09-21T17:55:58;4.07;;;3.86;;
68942;SDS011;60852;52.190;4.422;2022-09-21T18:04:00;4.24;;;4.23;;
68942;SDS011;60852;52.190;4.422;2022-09-21T18:06:27;4.15;;;4.11;;
68942;SDS011;60852;52.190;4.422;2022-09-21T18:08:53;4.45;;;4.43;;
68942;SDS011;60852;52.190;4.422;2022-09-21T18:19:44;4.39;;;4.35;;
68942;SDS011;60852;52.190;4.422;2022-09-21T18:24:58;3.92;;;3.89;;
68942;SDS011;60852;52.190;4.422;2022-09-21T18:27:25;3.44;;;3.40;;
68942;SDS011;60852;52.190;4.422;2022-09-21T18:29:50;3.36;;;3.35;;
68942;SDS011;60852;52.190;4.422;2022-09-21T18:37:53;3.45;;;3.44;;
68942;SDS011;60852;52.190;4.422;2022-09-21T18:43:30;3.98;;;3.98;;
68942;SDS011;60852;52.190;4.422;2022-09-21T18:46:12;3.51;;;3.50;;
68942;SDS011;60852;52.190;4.422;2022-09-21T18:48:47;3.74;;;3.70;;
68942;SDS011;60852;52.190;4.422;2022-09-21T18:51:36;3.70;;;3.64;;
68942;SDS011;60852;52.190;4.422;2022-09-21T18:54:31;3.84;;;3.81;;
68942;SDS011;60852;52.190;4.422;2022-09-21T18:56:57;3.76;;;3.72;;
68942;SDS011;60852;52.190;4.422;2022-09-21T18:59:24;4.05;;;3.99;;
68942;SDS011;60852;52.190;4.422;2022-09-21T19:01:50;4.53;;;4.47;;
68942;SDS011;60852;52.190;4.422;2022-09-21T19:04:17;5.06;;;5.04;;